Nearby METAR Reports

 

KDPA - Chicago/Dupage, Illinois, USA
Distance from station: NW 11mi, 18km
Updated: Sat, 23-Jan-2021 6:52pm CST
Overcast
Overcast
 Wind from SE
Wind: SE 7 mph , 11 km/h
Temperature: 27°F , -3°C
Wind Chill: 19°F , -7°C
Dew Point: 16°F , -9°C
Humidity: 64%
Barometer: 30.26 inHg , 1024.7 hPa
Clouds: Overcast
Visibility: 10 miles , 16 km
Cloud details: Overcast 9500 ft
2021/01/24 00:52 KDPA 240052Z 14006KT 10SM OVC095 M03/M09 A3026 RMK AO2 SLP260 T10281094
KLOT - Romeoville/Chi, Illinois, USA
Distance from station: S 13mi, 21km
Updated: Sat, 23-Jan-2021 7:35pm CST
Mostly cloudy
Mostly cloudy
 Wind from SE
Wind: SE 8 mph , 13 km/h
Temperature: 27°F , -3°C
Wind Chill: 19°F , -7°C
Dew Point: 19°F , -7°C
Humidity: 74%
Barometer: 30.26 inHg , 1024.7 hPa
Clouds: Mostly cloudy
Visibility: 10 miles , 16 km
Cloud details: Partly cloudy 8000 ft
Mostly cloudy 10000 ft
2021/01/24 01:35 KLOT 240135Z AUTO 13007KT 10SM SCT080 BKN100 M03/M07 A3026 RMK AO2 T10281075
 
KORD - Chicago O'Hare, Illinois, USA
Distance from station: NE 17mi, 27km
Updated: Sat, 23-Jan-2021 6:51pm CST
Overcast
Overcast
 Wind from SSE
Wind: SSE 6 mph , 9 km/h
Temperature: 28°F , -2°C
Wind Chill: 21°F , -6°C
Dew Point: 14°F , -10°C
Humidity: 55%
Barometer: 30.27 inHg , 1025.1 hPa
Clouds: Overcast
Visibility: 10 miles , 16 km
Cloud details: Partly cloudy 9000 ft
Overcast 25000 ft
2021/01/24 00:51 KORD 240051Z 15005KT 10SM SCT090 OVC250 M02/M10 A3027 RMK AO2 SLP260 T10171100
KARR - Chicago/Aurora, Illinois, USA
Distance from station: W 19mi, 30km
Updated: Sat, 23-Jan-2021 6:52pm CST
Overcast
Overcast
 Wind from ESE
Wind: ESE 7 mph , 11 km/h
Temperature: 27°F , -3°C
Wind Chill: 19°F , -7°C
Dew Point: 16°F , -9°C
Humidity: 64%
Barometer: 30.25 inHg , 1024.4 hPa
Clouds: Overcast
Visibility: 10 miles , 16 km
Cloud details: Partly cloudy 6500 ft
Overcast 8500 ft
2021/01/24 00:52 KARR 240052Z 12006KT 10SM SCT065 OVC085 M03/M09 A3025 RMK AO2 SLP258 T10281089
 
KJOT - Joliet, Illinois, USA
Distance from station: S 19mi, 31km
Updated: Sat, 23-Jan-2021 7:35pm CST
Clear
Clear
 Wind from ESE
Wind: ESE 6 mph , 9 km/h
Temperature: 28°F , -2°C
Wind Chill: 21°F , -6°C
Dew Point: 19°F , -7°C
Humidity: 69%
Barometer: 30.27 inHg , 1025.1 hPa
Clouds: Clear
Visibility: 10 miles , 16 km
2021/01/24 01:35 KJOT 240135Z AUTO 12005KT 10SM CLR M02/M07 A3027 RMK AO2 T10181075
KMDW - Chicago, Illinois, USA
Distance from station: E 19mi, 31km
Updated: Sat, 23-Jan-2021 6:53pm CST
Mostly cloudy
Mostly cloudy
 Wind from SSE
Wind: SSE 8 mph , 13 km/h
Temperature: 28°F , -2°C
Wind Chill: 20°F , -7°C
Dew Point: 12°F , -11°C
Humidity: 51%
Barometer: 30.29 inHg , 1025.7 hPa
Clouds: Mostly cloudy
Visibility: 10 miles , 16 km
Cloud details: Mostly cloudy 9500 ft
Mostly cloudy 16000 ft
Mostly cloudy 25000 ft
2021/01/24 00:53 KMDW 240053Z 16007KT 10SM BKN095 BKN160 BKN250 M02/M11 A3029 RMK AO2 SLP274 T10171111
 
KPWK - Palwaukee, Illinois, USA
Distance from station: NNE 25mi, 41km
Updated: Sat, 23-Jan-2021 6:52pm CST
Mostly cloudy
Mostly cloudy
 Wind from ESE
Wind: ESE 3 mph , 6 km/h
Temperature: 28°F , -2°C
Dew Point: 12°F , -11°C
Humidity: 51%
Barometer: 30.29 inHg , 1025.7 hPa
Clouds: Mostly cloudy
Visibility: 10 miles , 16 km
Cloud details: Mostly cloudy 8000 ft
Mostly cloudy 10000 ft
2021/01/24 00:52 KPWK 240052Z 11003KT 10SM BKN080 BKN100 M02/M11 A3029 RMK AO2 SLP269 T10221111
KC09 - Morris-Washburn, Illinois, USA
Distance from station: SSW 29mi, 47km
Updated: Sat, 23-Jan-2021 7:35pm CST
Partly cloudy
Partly cloudy
 Wind from ESE
Wind: ESE 8 mph , 13 km/h
Temperature: 28°F , -2°C
Wind Chill: 20°F , -7°C
Dew Point: 19°F , -7°C
Humidity: 69%
Barometer: 30.25 inHg , 1024.4 hPa
Clouds: Partly cloudy
Visibility: 10 miles , 16 km
Cloud details: Partly cloudy 7500 ft
2021/01/24 01:35 KC09 240135Z AUTO 12007KT 10SM SCT075 M02/M07 A3025 RMK AO2 T10201074
 
KDKB - De Kalb, Illinois, USA
Distance from station: WNW 31mi, 50km
Updated: Sat, 23-Jan-2021 7:35pm CST
Overcast
Overcast
 Wind from SE
Wind: SE 12 mph , 19 km/h
Temperature: 27°F , -3°C
Wind Chill: 16°F , -9°C
Dew Point: 18°F , -8°C
Humidity: 69%
Barometer: 30.24 inHg , 1024 hPa
Clouds: Overcast
Visibility: 10 miles , 16 km
Cloud details: Overcast 5000 ft
2021/01/24 01:35 KDKB 240135Z AUTO 13010KT 10SM OVC050 M03/M08 A3024 RMK AO2 T10301085
KIGQ - Chicago/Lansing, Illinois, USA
Distance from station: ESE 35mi, 57km
Updated: Sat, 23-Jan-2021 7:35pm CST
Mostly cloudy
Mostly cloudy
 Wind from SE
Wind: SE 7 mph , 11 km/h
Temperature: 27°F , -3°C
Wind Chill: 19°F , -7°C
Dew Point: 16°F , -9°C
Humidity: 64%
Barometer: 30.29 inHg , 1025.7 hPa
Clouds: Mostly cloudy
Visibility: 10 miles , 16 km
Cloud details: Mostly cloudy 12000 ft
2021/01/24 01:35 KIGQ 240135Z AUTO 14006KT 10SM BKN120 M03/M09 A3029 RMK AO2 T10271094
 
KGYY - Gary Regional, Indiana, USA
Distance from station: ESE 38mi, 62km
Updated: Sat, 23-Jan-2021 6:45pm CST
Clear
Clear
 Wind from SE
Wind: SE 3 mph , 6 km/h
Temperature: 28°F , -2°C
Dew Point: 16°F , -9°C
Humidity: 59%
Barometer: 30.31 inHg , 1026.4 hPa
Clouds: Clear
Visibility: 10 miles , 16 km
2021/01/24 00:45 KGYY 240045Z 14003KT 10SM CLR M02/M09 A3031
KUGN - Waukegan, Illinois, USA
Distance from station: NNE 45mi, 73km
Updated: Sat, 23-Jan-2021 6:55pm CST
Overcast
Overcast
 Wind from SE
Wind: SE 6 mph , 9 km/h
Temperature: 27°F , -3°C
Wind Chill: 20°F , -7°C
Dew Point: 12°F , -11°C
Humidity: 54%
Barometer: 30.27 inHg , 1025.1 hPa
Clouds: Overcast
Visibility: 10 miles , 16 km
Cloud details: Overcast 9000 ft
2021/01/24 00:55 KUGN 240055Z 14005KT 10SM OVC090 M03/M11 A3027 RMK AO2 SLP271 T10281111
 
KRPJ - Rochelle/Koritz, Illinois, USA
Distance from station: W 50mi, 80km
Updated: Sat, 23-Jan-2021 7:35pm CST
Overcast
Overcast
 Wind from ESE
Wind: ESE 13 mph , 20 km/h
Temperature: 27°F , -3°C
Wind Chill: 16°F , -9°C
Dew Point: 19°F , -7°C
Humidity: 74%
Barometer: 30.22 inHg , 1023.4 hPa
Clouds: Overcast
Visibility: 10 miles , 16 km
Cloud details: Partly cloudy 8000 ft
Overcast 9000 ft
2021/01/24 01:35 KRPJ 240135Z AUTO 12011KT 10SM SCT080 OVC090 M03/M07 A3022 RMK AO2 T10321073